sensor_id;sensor_type;location;lat;lon;timestamp;temperature;humidity
16417;DHT22;8317;52.186;5.688;2023-02-28T00:01:20;1.30;99.90
16417;DHT22;8317;52.186;5.688;2023-02-28T00:03:47;1.30;99.90
16417;DHT22;8317;52.186;5.688;2023-02-28T00:06:15;1.30;99.90
16417;DHT22;8317;52.186;5.688;2023-02-28T00:08:43;1.30;99.90
16417;DHT22;8317;52.186;5.688;2023-02-28T00:11:11;1.30;99.90
16417;DHT22;8317;52.186;5.688;2023-02-28T00:13:40;1.40;99.90
16417;DHT22;8317;52.186;5.688;2023-02-28T00:16:09;1.40;99.90
16417;DHT22;8317;52.186;5.688;2023-02-28T00:18:37;1.50;99.90
16417;DHT22;8317;52.186;5.688;2023-02-28T00:21:04;1.50;99.90
16417;DHT22;8317;52.186;5.688;2023-02-28T00:23:31;1.50;99.90
16417;DHT22;8317;52.186;5.688;2023-02-28T00:26:00;1.60;99.90
16417;DHT22;8317;52.186;5.688;2023-02-28T00:28:27;1.70;99.90
16417;DHT22;8317;52.186;5.688;2023-02-28T00:30:54;1.70;99.90
16417;DHT22;8317;52.186;5.688;2023-02-28T00:33:22;1.80;99.90
16417;DHT22;8317;52.186;5.688;2023-02-28T00:35:49;1.80;99.90
16417;DHT22;8317;52.186;5.688;2023-02-28T00:38:16;1.80;99.90
16417;DHT22;8317;52.186;5.688;2023-02-28T00:40:43;1.90;99.90
16417;DHT22;8317;52.186;5.688;2023-02-28T00:43:11;1.90;99.90
16417;DHT22;8317;52.186;5.688;2023-02-28T00:45:38;1.90;99.90
16417;DHT22;8317;52.186;5.688;2023-02-28T00:48:05;1.90;99.90
16417;DHT22;8317;52.186;5.688;2023-02-28T00:50:32;2.00;99.90
16417;DHT22;8317;52.186;5.688;2023-02-28T00:52:59;2.00;99.90
16417;DHT22;8317;52.186;5.688;2023-02-28T00:55:26;2.10;99.90
16417;DHT22;8317;52.186;5.688;2023-02-28T00:57:53;2.10;99.90
16417;DHT22;8317;52.186;5.688;2023-02-28T01:00:21;2.10;99.90
16417;DHT22;8317;52.186;5.688;2023-02-28T01:02:48;2.10;99.90
16417;DHT22;8317;52.186;5.688;2023-02-28T01:05:15;2.10;99.90
16417;DHT22;8317;52.186;5.688;2023-02-28T01:07:42;2.20;99.90
16417;DHT22;8317;52.186;5.688;2023-02-28T01:10:10;2.20;99.90
16417;DHT22;8317;52.186;5.688;2023-02-28T01:12:37;2.20;99.90
16417;DHT22;8317;52.186;5.688;2023-02-28T01:15:05;2.20;99.90
16417;DHT22;8317;52.186;5.688;2023-02-28T01:17:33;2.20;99.90
16417;DHT22;8317;52.186;5.688;2023-02-28T01:20:00;2.20;99.90
16417;DHT22;8317;52.186;5.688;2023-02-28T01:22:27;2.20;99.90
16417;DHT22;8317;52.186;5.688;2023-02-28T01:24:54;2.30;99.90
16417;DHT22;8317;52.186;5.688;2023-02-28T01:27:21;2.30;99.90
16417;DHT22;8317;52.186;5.688;2023-02-28T01:29:50;2.30;99.90
16417;DHT22;8317;52.186;5.688;2023-02-28T01:32:17;2.30;99.90
16417;DHT22;8317;52.186;5.688;2023-02-28T01:34:45;2.30;99.90
16417;DHT22;8317;52.186;5.688;2023-02-28T01:37:12;2.40;99.90
16417;DHT22;8317;52.186;5.688;2023-02-28T01:39:39;2.40;99.90
16417;DHT22;8317;52.186;5.688;2023-02-28T01:42:07;2.40;99.90
16417;DHT22;8317;52.186;5.688;2023-02-28T01:44:55;2.40;99.90
16417;DHT22;8317;52.186;5.688;2023-02-28T01:47:26;2.50;99.90
16417;DHT22;8317;52.186;5.688;2023-02-28T01:49:55;2.50;99.90
16417;DHT22;8317;52.186;5.688;2023-02-28T01:52:23;2.40;99.90
16417;DHT22;8317;52.186;5.688;2023-02-28T01:54:52;2.40;99.90
16417;DHT22;8317;52.186;5.688;2023-02-28T01:57:24;2.40;99.90
16417;DHT22;8317;52.186;5.688;2023-02-28T01:59:54;2.40;99.90
16417;DHT22;8317;52.186;5.688;2023-02-28T02:02:24;2.50;99.90
16417;DHT22;8317;52.186;5.688;2023-02-28T02:04:55;2.50;99.90
16417;DHT22;8317;52.186;5.688;2023-02-28T02:07:25;2.50;99.90
16417;DHT22;8317;52.186;5.688;2023-02-28T02:10:00;2.50;99.90
16417;DHT22;8317;52.186;5.688;2023-02-28T02:12:52;2.50;99.90
16417;DHT22;8317;52.186;5.688;2023-02-28T02:15:26;2.60;99.90
16417;DHT22;8317;52.186;5.688;2023-02-28T02:17:59;2.60;99.90
16417;DHT22;8317;52.186;5.688;2023-02-28T02:20:57;2.60;99.90
16417;DHT22;8317;52.186;5.688;2023-02-28T02:24:03;2.60;99.90
16417;DHT22;8317;52.186;5.688;2023-02-28T02:26:50;2.60;99.90
16417;DHT22;8317;52.186;5.688;2023-02-28T02:29:40;2.60;99.90
16417;DHT22;8317;52.186;5.688;2023-02-28T02:35:25;2.60;99.90
16417;DHT22;8317;52.186;5.688;2023-02-28T02:37:57;2.60;99.90
16417;DHT22;8317;52.186;5.688;2023-02-28T02:40:29;2.60;99.90
16417;DHT22;8317;52.186;5.688;2023-02-28T02:43:00;2.60;99.90
16417;DHT22;8317;52.186;5.688;2023-02-28T02:45:32;2.60;99.90
16417;DHT22;8317;52.186;5.688;2023-02-28T02:48:03;2.60;99.90
16417;DHT22;8317;52.186;5.688;2023-02-28T02:50:36;2.60;99.90
16417;DHT22;8317;52.186;5.688;2023-02-28T02:53:05;2.60;99.90
16417;DHT22;8317;52.186;5.688;2023-02-28T02:55:36;2.70;99.90
16417;DHT22;8317;52.186;5.688;2023-02-28T02:58:07;2.60;99.90
16417;DHT22;8317;52.186;5.688;2023-02-28T03:00:38;2.70;99.90
16417;DHT22;8317;52.186;5.688;2023-02-28T03:03:07;2.70;99.90
16417;DHT22;8317;52.186;5.688;2023-02-28T03:05:41;2.70;99.90
16417;DHT22;8317;52.186;5.688;2023-02-28T03:08:09;2.70;99.90
16417;DHT22;8317;52.186;5.688;2023-02-28T03:10:38;2.70;99.90
16417;DHT22;8317;52.186;5.688;2023-02-28T03:19:06;2.70;99.90
16417;DHT22;8317;52.186;5.688;2023-02-28T03:21:45;2.60;99.90
16417;DHT22;8317;52.186;5.688;2023-02-28T03:24:18;2.40;99.90
16417;DHT22;8317;52.186;5.688;2023-02-28T03:26:52;2.40;99.90
16417;DHT22;8317;52.186;5.688;2023-02-28T03:29:23;2.40;99.90
16417;DHT22;8317;52.186;5.688;2023-02-28T03:31:56;2.40;99.90
16417;DHT22;8317;52.186;5.688;2023-02-28T03:34:28;2.40;99.90
16417;DHT22;8317;52.186;5.688;2023-02-28T03:37:01;2.40;99.90
16417;DHT22;8317;52.186;5.688;2023-02-28T03:39:31;2.40;99.90
16417;DHT22;8317;52.186;5.688;2023-02-28T03:42:04;2.30;99.90
16417;DHT22;8317;52.186;5.688;2023-02-28T03:44:36;2.40;99.90
16417;DHT22;8317;52.186;5.688;2023-02-28T03:47:07;2.40;99.90
16417;DHT22;8317;52.186;5.688;2023-02-28T03:49:39;2.30;99.90
16417;DHT22;8317;52.186;5.688;2023-02-28T03:52:10;2.40;99.90
16417;DHT22;8317;52.186;5.688;2023-02-28T03:54:42;2.40;99.90
16417;DHT22;8317;52.186;5.688;2023-02-28T03:57:17;2.50;99.90
16417;DHT22;8317;52.186;5.688;2023-02-28T03:59:47;2.50;99.90
16417;DHT22;8317;52.186;5.688;2023-02-28T04:02:16;2.40;99.90
16417;DHT22;8317;52.186;5.688;2023-02-28T04:04:44;2.40;99.90
16417;DHT22;8317;52.186;5.688;2023-02-28T04:07:15;2.40;99.90
16417;DHT22;8317;52.186;5.688;2023-02-28T04:09:43;2.30;99.90
16417;DHT22;8317;52.186;5.688;2023-02-28T04:12:10;2.30;99.90
16417;DHT22;8317;52.186;5.688;2023-02-28T04:14:37;2.40;99.90
16417;DHT22;8317;52.186;5.688;2023-02-28T04:17:04;2.40;99.90
16417;DHT22;8317;52.186;5.688;2023-02-28T04:19:31;2.40;99.90
16417;DHT22;8317;52.186;5.688;2023-02-28T04:21:58;2.40;99.90
16417;DHT22;8317;52.186;5.688;2023-02-28T04:24:27;2.30;99.90
16417;DHT22;8317;52.186;5.688;2023-02-28T04:26:55;2.30;99.90
16417;DHT22;8317;52.186;5.688;2023-02-28T04:29:24;2.40;99.90
16417;DHT22;8317;52.186;5.688;2023-02-28T04:31:51;2.40;99.90
16417;DHT22;8317;52.186;5.688;2023-02-28T04:34:20;2.40;99.90
16417;DHT22;8317;52.186;5.688;2023-02-28T04:36:47;2.40;99.90
16417;DHT22;8317;52.186;5.688;2023-02-28T04:39:16;2.40;99.90
16417;DHT22;8317;52.186;5.688;2023-02-28T04:41:45;2.40;99.90
16417;DHT22;8317;52.186;5.688;2023-02-28T04:44:12;2.40;99.90
16417;DHT22;8317;52.186;5.688;2023-02-28T04:46:39;2.30;99.90
16417;DHT22;8317;52.186;5.688;2023-02-28T04:49:07;2.30;99.90
16417;DHT22;8317;52.186;5.688;2023-02-28T04:51:34;2.40;99.90
16417;DHT22;8317;52.186;5.688;2023-02-28T04:54:01;2.40;99.90
16417;DHT22;8317;52.186;5.688;2023-02-28T04:56:28;2.40;99.90
16417;DHT22;8317;52.186;5.688;2023-02-28T04:58:57;2.30;99.90
16417;DHT22;8317;52.186;5.688;2023-02-28T05:01:26;2.30;99.90
16417;DHT22;8317;52.186;5.688;2023-02-28T05:03:54;2.30;99.90
16417;DHT22;8317;52.186;5.688;2023-02-28T05:06:23;2.30;99.90
16417;DHT22;8317;52.186;5.688;2023-02-28T05:08:50;2.30;99.90
16417;DHT22;8317;52.186;5.688;2023-02-28T05:11:19;2.30;99.90
16417;DHT22;8317;52.186;5.688;2023-02-28T05:13:48;2.40;99.90
16417;DHT22;8317;52.186;5.688;2023-02-28T05:16:16;2.40;99.90
16417;DHT22;8317;52.186;5.688;2023-02-28T05:18:43;2.40;99.90
16417;DHT22;8317;52.186;5.688;2023-02-28T05:21:26;2.40;99.90
16417;DHT22;8317;52.186;5.688;2023-02-28T05:23:53;2.40;99.90
16417;DHT22;8317;52.186;5.688;2023-02-28T05:26:20;2.50;99.90
16417;DHT22;8317;52.186;5.688;2023-02-28T05:28:47;2.50;99.90
16417;DHT22;8317;52.186;5.688;2023-02-28T05:31:16;2.50;99.90
16417;DHT22;8317;52.186;5.688;2023-02-28T05:33:42;2.50;99.90
16417;DHT22;8317;52.186;5.688;2023-02-28T05:36:10;2.50;99.90
16417;DHT22;8317;52.186;5.688;2023-02-28T05:38:37;2.50;99.90
16417;DHT22;8317;52.186;5.688;2023-02-28T05:41:07;2.50;99.90
16417;DHT22;8317;52.186;5.688;2023-02-28T05:43:35;2.50;99.90
16417;DHT22;8317;52.186;5.688;2023-02-28T05:46:03;2.50;99.90
16417;DHT22;8317;52.186;5.688;2023-02-28T05:48:32;2.50;99.90
16417;DHT22;8317;52.186;5.688;2023-02-28T05:51:00;2.40;99.90
16417;DHT22;8317;52.186;5.688;2023-02-28T05:53:28;2.40;99.90
16417;DHT22;8317;52.186;5.688;2023-02-28T05:55:55;2.40;99.90
16417;DHT22;8317;52.186;5.688;2023-02-28T05:58:22;2.40;99.90
16417;DHT22;8317;52.186;5.688;2023-02-28T06:00:51;2.40;99.90
16417;DHT22;8317;52.186;5.688;2023-02-28T06:03:17;2.40;99.90
16417;DHT22;8317;52.186;5.688;2023-02-28T06:05:46;2.40;99.90
16417;DHT22;8317;52.186;5.688;2023-02-28T06:08:13;2.40;99.90
16417;DHT22;8317;52.186;5.688;2023-02-28T06:10:41;2.40;99.90
16417;DHT22;8317;52.186;5.688;2023-02-28T06:13:08;2.40;99.90
16417;DHT22;8317;52.186;5.688;2023-02-28T06:15:34;2.40;99.90
16417;DHT22;8317;52.186;5.688;2023-02-28T06:18:01;2.40;99.90
16417;DHT22;8317;52.186;5.688;2023-02-28T06:20:28;2.40;99.90
16417;DHT22;8317;52.186;5.688;2023-02-28T06:22:57;2.40;99.90
16417;DHT22;8317;52.186;5.688;2023-02-28T06:25:25;2.40;99.90
16417;DHT22;8317;52.186;5.688;2023-02-28T06:27:52;2.40;99.90
16417;DHT22;8317;52.186;5.688;2023-02-28T06:30:19;2.30;99.90
16417;DHT22;8317;52.186;5.688;2023-02-28T06:32:49;2.30;99.90
16417;DHT22;8317;52.186;5.688;2023-02-28T06:35:16;2.30;99.90
16417;DHT22;8317;52.186;5.688;2023-02-28T06:37:43;2.30;99.90
16417;DHT22;8317;52.186;5.688;2023-02-28T06:40:12;2.30;99.90
16417;DHT22;8317;52.186;5.688;2023-02-28T06:42:39;2.30;99.90
16417;DHT22;8317;52.186;5.688;2023-02-28T06:45:07;2.40;99.90
16417;DHT22;8317;52.186;5.688;2023-02-28T06:47:35;2.30;99.90
16417;DHT22;8317;52.186;5.688;2023-02-28T06:50:03;2.30;99.90
16417;DHT22;8317;52.186;5.688;2023-02-28T06:52:31;2.30;99.90
16417;DHT22;8317;52.186;5.688;2023-02-28T06:54:58;2.30;99.90
16417;DHT22;8317;52.186;5.688;2023-02-28T06:57:29;2.40;99.90
16417;DHT22;8317;52.186;5.688;2023-02-28T06:59:57;2.40;99.90
16417;DHT22;8317;52.186;5.688;2023-02-28T07:02:25;2.40;99.90
16417;DHT22;8317;52.186;5.688;2023-02-28T07:04:52;2.40;99.90
16417;DHT22;8317;52.186;5.688;2023-02-28T07:07:19;2.40;99.90
16417;DHT22;8317;52.186;5.688;2023-02-28T07:09:46;2.40;99.90
16417;DHT22;8317;52.186;5.688;2023-02-28T07:12:13;2.50;99.90
16417;DHT22;8317;52.186;5.688;2023-02-28T07:14:41;2.50;99.90
16417;DHT22;8317;52.186;5.688;2023-02-28T07:17:09;2.50;99.90
16417;DHT22;8317;52.186;5.688;2023-02-28T07:19:37;2.50;99.90
16417;DHT22;8317;52.186;5.688;2023-02-28T07:22:04;2.50;99.90
16417;DHT22;8317;52.186;5.688;2023-02-28T07:24:31;2.40;99.90
16417;DHT22;8317;52.186;5.688;2023-02-28T07:26:59;2.50;99.90
16417;DHT22;8317;52.186;5.688;2023-02-28T07:29:26;2.40;99.90
16417;DHT22;8317;52.186;5.688;2023-02-28T07:31:55;2.40;99.90
16417;DHT22;8317;52.186;5.688;2023-02-28T07:34:22;2.40;99.90
16417;DHT22;8317;52.186;5.688;2023-02-28T07:36:52;2.40;99.90
16417;DHT22;8317;52.186;5.688;2023-02-28T07:39:19;2.50;99.90
16417;DHT22;8317;52.186;5.688;2023-02-28T07:41:46;2.50;99.90
16417;DHT22;8317;52.186;5.688;2023-02-28T07:44:13;2.50;99.90
16417;DHT22;8317;52.186;5.688;2023-02-28T07:46:40;2.70;99.90
16417;DHT22;8317;52.186;5.688;2023-02-28T07:49:08;2.90;99.90
16417;DHT22;8317;52.186;5.688;2023-02-28T07:51:35;2.60;99.90
16417;DHT22;8317;52.186;5.688;2023-02-28T07:54:02;2.70;99.90
16417;DHT22;8317;52.186;5.688;2023-02-28T07:56:29;2.90;99.90
16417;DHT22;8317;52.186;5.688;2023-02-28T07:58:56;2.90;99.90
16417;DHT22;8317;52.186;5.688;2023-02-28T08:01:23;3.00;99.90
16417;DHT22;8317;52.186;5.688;2023-02-28T08:03:50;3.00;99.90
16417;DHT22;8317;52.186;5.688;2023-02-28T08:06:21;3.10;99.90
16417;DHT22;8317;52.186;5.688;2023-02-28T08:08:49;3.10;99.90
16417;DHT22;8317;52.186;5.688;2023-02-28T08:11:16;3.00;99.90
16417;DHT22;8317;52.186;5.688;2023-02-28T08:13:43;3.00;99.90
16417;DHT22;8317;52.186;5.688;2023-02-28T08:16:11;3.00;99.90
16417;DHT22;8317;52.186;5.688;2023-02-28T08:18:39;3.00;99.90
16417;DHT22;8317;52.186;5.688;2023-02-28T08:21:07;3.00;99.90
16417;DHT22;8317;52.186;5.688;2023-02-28T08:23:35;3.00;99.90
16417;DHT22;8317;52.186;5.688;2023-02-28T08:26:03;3.10;99.90
16417;DHT22;8317;52.186;5.688;2023-02-28T08:28:30;3.20;99.90
16417;DHT22;8317;52.186;5.688;2023-02-28T08:30:58;3.30;99.90
16417;DHT22;8317;52.186;5.688;2023-02-28T08:33:25;3.50;99.90
16417;DHT22;8317;52.186;5.688;2023-02-28T08:35:53;3.50;99.90
16417;DHT22;8317;52.186;5.688;2023-02-28T08:38:21;3.80;99.90
16417;DHT22;8317;52.186;5.688;2023-02-28T08:40:49;4.00;99.90
16417;DHT22;8317;52.186;5.688;2023-02-28T08:43:16;4.20;99.90
16417;DHT22;8317;52.186;5.688;2023-02-28T08:45:43;4.40;99.90
16417;DHT22;8317;52.186;5.688;2023-02-28T08:48:10;4.60;99.90
16417;DHT22;8317;52.186;5.688;2023-02-28T08:50:37;4.50;99.90
16417;DHT22;8317;52.186;5.688;2023-02-28T08:53:04;4.60;99.90
16417;DHT22;8317;52.186;5.688;2023-02-28T08:55:31;4.70;99.90
16417;DHT22;8317;52.186;5.688;2023-02-28T08:57:59;4.90;99.90
16417;DHT22;8317;52.186;5.688;2023-02-28T09:00:26;5.00;99.90
16417;DHT22;8317;52.186;5.688;2023-02-28T09:02:53;4.80;99.90
16417;DHT22;8317;52.186;5.688;2023-02-28T09:05:20;4.80;99.90
16417;DHT22;8317;52.186;5.688;2023-02-28T09:07:47;5.30;99.90
16417;DHT22;8317;52.186;5.688;2023-02-28T09:10:14;5.60;99.90
16417;DHT22;8317;52.186;5.688;2023-02-28T09:12:41;5.80;99.90
16417;DHT22;8317;52.186;5.688;2023-02-28T09:15:11;6.10;99.90
16417;DHT22;8317;52.186;5.688;2023-02-28T09:17:38;6.20;99.90
16417;DHT22;8317;52.186;5.688;2023-02-28T09:20:06;6.30;99.90
16417;DHT22;8317;52.186;5.688;2023-02-28T09:22:33;6.40;99.90
16417;DHT22;8317;52.186;5.688;2023-02-28T09:25:00;7.10;99.90
16417;DHT22;8317;52.186;5.688;2023-02-28T09:27:27;7.40;99.90
16417;DHT22;8317;52.186;5.688;2023-02-28T09:29:54;7.20;99.90
16417;DHT22;8317;52.186;5.688;2023-02-28T09:32:22;7.00;99.90
16417;DHT22;8317;52.186;5.688;2023-02-28T09:34:58;7.10;99.90
16417;DHT22;8317;52.186;5.688;2023-02-28T09:37:25;7.30;99.90
16417;DHT22;8317;52.186;5.688;2023-02-28T09:39:54;7.30;99.90
16417;DHT22;8317;52.186;5.688;2023-02-28T09:42:24;7.10;99.90
16417;DHT22;8317;52.186;5.688;2023-02-28T09:44:54;7.50;99.90
16417;DHT22;8317;52.186;5.688;2023-02-28T09:47:28;7.40;99.90
16417;DHT22;8317;52.186;5.688;2023-02-28T09:49:58;7.60;99.90
16417;DHT22;8317;52.186;5.688;2023-02-28T09:52:29;8.00;99.90
16417;DHT22;8317;52.186;5.688;2023-02-28T09:55:18;7.30;99.90
16417;DHT22;8317;52.186;5.688;2023-02-28T09:57:45;7.40;99.90
16417;DHT22;8317;52.186;5.688;2023-02-28T10:00:16;7.10;99.90
16417;DHT22;8317;52.186;5.688;2023-02-28T10:03:04;7.90;99.90
16417;DHT22;8317;52.186;5.688;2023-02-28T10:05:36;8.20;99.90
16417;DHT22;8317;52.186;5.688;2023-02-28T10:08:09;8.50;99.90
16417;DHT22;8317;52.186;5.688;2023-02-28T10:10:40;7.90;99.90
16417;DHT22;8317;52.186;5.688;2023-02-28T10:13:20;7.80;99.90
16417;DHT22;8317;52.186;5.688;2023-02-28T10:15:52;7.90;99.90
16417;DHT22;8317;52.186;5.688;2023-02-28T10:18:24;8.40;99.90
16417;DHT22;8317;52.186;5.688;2023-02-28T10:20:53;8.70;99.90
16417;DHT22;8317;52.186;5.688;2023-02-28T10:23:24;8.40;99.40
16417;DHT22;8317;52.186;5.688;2023-02-28T10:25:55;7.70;99.90
16417;DHT22;8317;52.186;5.688;2023-02-28T10:28:25;8.50;99.50
16417;DHT22;8317;52.186;5.688;2023-02-28T10:30:54;9.10;98.50
16417;DHT22;8317;52.186;5.688;2023-02-28T10:33:29;8.90;98.20
16417;DHT22;8317;52.186;5.688;2023-02-28T10:35:56;8.40;98.70
16417;DHT22;8317;52.186;5.688;2023-02-28T10:38:26;8.70;97.80
16417;DHT22;8317;52.186;5.688;2023-02-28T10:41:04;9.10;98.10
16417;DHT22;8317;52.186;5.688;2023-02-28T10:43:31;9.30;98.70
16417;DHT22;8317;52.186;5.688;2023-02-28T10:46:01;9.70;97.60
16417;DHT22;8317;52.186;5.688;2023-02-28T10:48:38;9.50;96.60
16417;DHT22;8317;52.186;5.688;2023-02-28T10:51:07;8.70;96.80
16417;DHT22;8317;52.186;5.688;2023-02-28T10:53:38;8.40;96.90
16417;DHT22;8317;52.186;5.688;2023-02-28T10:56:16;9.00;97.50
16417;DHT22;8317;52.186;5.688;2023-02-28T10:58:50;9.70;96.80
16417;DHT22;8317;52.186;5.688;2023-02-28T11:01:19;9.00;96.30
16417;DHT22;8317;52.186;5.688;2023-02-28T11:03:49;8.50;97.50
16417;DHT22;8317;52.186;5.688;2023-02-28T11:06:18;9.00;98.20
16417;DHT22;8317;52.186;5.688;2023-02-28T11:08:48;8.70;97.60
16417;DHT22;8317;52.186;5.688;2023-02-28T11:11:16;8.10;97.40
16417;DHT22;8317;52.186;5.688;2023-02-28T11:13:44;8.90;97.80
16417;DHT22;8317;52.186;5.688;2023-02-28T11:16:14;9.00;96.80
16417;DHT22;8317;52.186;5.688;2023-02-28T11:18:48;9.00;96.70
16417;DHT22;8317;52.186;5.688;2023-02-28T11:21:20;8.80;98.80
16417;DHT22;8317;52.186;5.688;2023-02-28T11:23:52;9.80;98.10
16417;DHT22;8317;52.186;5.688;2023-02-28T11:26:38;9.80;97.40
16417;DHT22;8317;52.186;5.688;2023-02-28T11:29:20;10.60;96.20
16417;DHT22;8317;52.186;5.688;2023-02-28T11:32:12;10.40;95.90
16417;DHT22;8317;52.186;5.688;2023-02-28T11:34:40;9.60;94.80
16417;DHT22;8317;52.186;5.688;2023-02-28T11:37:13;8.70;95.50
16417;DHT22;8317;52.186;5.688;2023-02-28T11:39:41;8.50;96.30
16417;DHT22;8317;52.186;5.688;2023-02-28T11:42:21;9.20;96.70
16417;DHT22;8317;52.186;5.688;2023-02-28T11:45:03;9.10;96.30
16417;DHT22;8317;52.186;5.688;2023-02-28T11:47:41;9.40;95.90
16417;DHT22;8317;52.186;5.688;2023-02-28T11:50:26;9.10;95.90
16417;DHT22;8317;52.186;5.688;2023-02-28T11:53:02;8.80;95.50
16417;DHT22;8317;52.186;5.688;2023-02-28T11:55:35;8.20;96.10
16417;DHT22;8317;52.186;5.688;2023-02-28T11:58:17;8.70;97.10
16417;DHT22;8317;52.186;5.688;2023-02-28T12:01:07;9.40;95.20
16417;DHT22;8317;52.186;5.688;2023-02-28T12:03:44;9.20;95.70
16417;DHT22;8317;52.186;5.688;2023-02-28T12:06:21;9.10;95.30
16417;DHT22;8317;52.186;5.688;2023-02-28T12:09:02;9.30;95.40
16417;DHT22;8317;52.186;5.688;2023-02-28T12:11:40;8.90;95.00
16417;DHT22;8317;52.186;5.688;2023-02-28T12:17:16;8.80;95.80
16417;DHT22;8317;52.186;5.688;2023-02-28T12:19:52;9.20;95.40
16417;DHT22;8317;52.186;5.688;2023-02-28T12:22:29;9.40;95.00
16417;DHT22;8317;52.186;5.688;2023-02-28T12:25:24;9.60;94.90
16417;DHT22;8317;52.186;5.688;2023-02-28T12:27:58;9.80;93.80
16417;DHT22;8317;52.186;5.688;2023-02-28T12:30:28;10.00;94.90
16417;DHT22;8317;52.186;5.688;2023-02-28T12:33:02;9.70;94.50
16417;DHT22;8317;52.186;5.688;2023-02-28T12:35:33;10.00;94.10
16417;DHT22;8317;52.186;5.688;2023-02-28T12:38:05;9.90;94.10
16417;DHT22;8317;52.186;5.688;2023-02-28T12:40:43;8.90;94.50
16417;DHT22;8317;52.186;5.688;2023-02-28T12:43:13;9.20;94.00
16417;DHT22;8317;52.186;5.688;2023-02-28T12:45:43;8.70;94.70
16417;DHT22;8317;52.186;5.688;2023-02-28T12:48:15;8.30;94.90
16417;DHT22;8317;52.186;5.688;2023-02-28T12:50:45;8.50;95.90
16417;DHT22;8317;52.186;5.688;2023-02-28T12:53:18;8.80;95.30
16417;DHT22;8317;52.186;5.688;2023-02-28T12:55:54;9.20;95.70
16417;DHT22;8317;52.186;5.688;2023-02-28T12:58:29;9.50;93.40
16417;DHT22;8317;52.186;5.688;2023-02-28T13:01:13;9.50;94.90
16417;DHT22;8317;52.186;5.688;2023-02-28T13:03:59;9.50;94.10
16417;DHT22;8317;52.186;5.688;2023-02-28T13:06:54;8.90;94.30
16417;DHT22;8317;52.186;5.688;2023-02-28T13:09:25;8.80;94.20
16417;DHT22;8317;52.186;5.688;2023-02-28T13:11:57;8.70;94.50
16417;DHT22;8317;52.186;5.688;2023-02-28T13:14:26;9.80;94.30
16417;DHT22;8317;52.186;5.688;2023-02-28T13:16:59;10.60;93.90
16417;DHT22;8317;52.186;5.688;2023-02-28T13:19:30;11.30;92.40
16417;DHT22;8317;52.186;5.688;2023-02-28T13:21:57;11.60;92.20
16417;DHT22;8317;52.186;5.688;2023-02-28T13:24:44;12.00;90.90
16417;DHT22;8317;52.186;5.688;2023-02-28T13:27:31;11.90;90.60
16417;DHT22;8317;52.186;5.688;2023-02-28T13:29:58;12.30;91.10
16417;DHT22;8317;52.186;5.688;2023-02-28T13:32:35;12.70;87.80
16417;DHT22;8317;52.186;5.688;2023-02-28T13:35:45;12.60;87.50
16417;DHT22;8317;52.186;5.688;2023-02-28T13:38:37;11.70;88.40
16417;DHT22;8317;52.186;5.688;2023-02-28T13:41:44;11.80;89.70
16417;DHT22;8317;52.186;5.688;2023-02-28T13:44:13;10.10;89.80
16417;DHT22;8317;52.186;5.688;2023-02-28T13:49:41;10.60;88.30
16417;DHT22;8317;52.186;5.688;2023-02-28T13:52:14;10.20;90.80
16417;DHT22;8317;52.186;5.688;2023-02-28T13:55:03;10.20;91.20
16417;DHT22;8317;52.186;5.688;2023-02-28T13:57:50;9.70;91.50
16417;DHT22;8317;52.186;5.688;2023-02-28T14:00:30;10.90;92.70
16417;DHT22;8317;52.186;5.688;2023-02-28T14:03:11;11.60;92.90
16417;DHT22;8317;52.186;5.688;2023-02-28T14:05:39;11.80;90.10
16417;DHT22;8317;52.186;5.688;2023-02-28T14:08:10;10.80;89.60
16417;DHT22;8317;52.186;5.688;2023-02-28T14:10:44;10.50;90.60
16417;DHT22;8317;52.186;5.688;2023-02-28T14:16:00;11.80;91.00
16417;DHT22;8317;52.186;5.688;2023-02-28T14:18:30;12.50;90.20
16417;DHT22;8317;52.186;5.688;2023-02-28T14:21:02;12.30;85.20
16417;DHT22;8317;52.186;5.688;2023-02-28T14:29:36;11.50;88.80
16417;DHT22;8317;52.186;5.688;2023-02-28T14:32:15;11.00;87.40
16417;DHT22;8317;52.186;5.688;2023-02-28T14:34:53;11.40;89.80
16417;DHT22;8317;52.186;5.688;2023-02-28T14:37:27;10.90;84.60
16417;DHT22;8317;52.186;5.688;2023-02-28T14:39:54;9.40;88.40
16417;DHT22;8317;52.186;5.688;2023-02-28T14:42:28;9.70;90.50
16417;DHT22;8317;52.186;5.688;2023-02-28T14:44:56;9.50;90.30
16417;DHT22;8317;52.186;5.688;2023-02-28T14:47:27;9.80;91.10
16417;DHT22;8317;52.186;5.688;2023-02-28T14:49:54;10.50;90.80
16417;DHT22;8317;52.186;5.688;2023-02-28T14:52:23;10.00;90.70
16417;DHT22;8317;52.186;5.688;2023-02-28T14:54:53;10.50;90.50
16417;DHT22;8317;52.186;5.688;2023-02-28T14:57:23;10.70;87.90
16417;DHT22;8317;52.186;5.688;2023-02-28T14:59:58;10.00;90.30
16417;DHT22;8317;52.186;5.688;2023-02-28T15:02:30;11.00;90.00
16417;DHT22;8317;52.186;5.688;2023-02-28T15:05:00;12.40;89.10
16417;DHT22;8317;52.186;5.688;2023-02-28T15:07:27;12.70;86.20
16417;DHT22;8317;52.186;5.688;2023-02-28T15:10:16;12.70;82.60
16417;DHT22;8317;52.186;5.688;2023-02-28T15:12:49;12.40;85.60
16417;DHT22;8317;52.186;5.688;2023-02-28T15:15:18;11.40;84.40
16417;DHT22;8317;52.186;5.688;2023-02-28T15:17:50;10.70;83.30
16417;DHT22;8317;52.186;5.688;2023-02-28T15:20:19;11.00;87.20
16417;DHT22;8317;52.186;5.688;2023-02-28T15:22:47;11.20;87.80
16417;DHT22;8317;52.186;5.688;2023-02-28T15:25:19;10.80;88.00
16417;DHT22;8317;52.186;5.688;2023-02-28T15:27:50;10.30;88.40
16417;DHT22;8317;52.186;5.688;2023-02-28T15:30:19;9.70;90.90
16417;DHT22;8317;52.186;5.688;2023-02-28T15:35:49;9.50;91.40
16417;DHT22;8317;52.186;5.688;2023-02-28T15:38:21;9.10;92.00
16417;DHT22;8317;52.186;5.688;2023-02-28T15:40:50;8.80;92.50
16417;DHT22;8317;52.186;5.688;2023-02-28T15:43:24;8.80;94.00
16417;DHT22;8317;52.186;5.688;2023-02-28T15:45:54;8.70;93.10
16417;DHT22;8317;52.186;5.688;2023-02-28T15:48:23;8.70;94.30
16417;DHT22;8317;52.186;5.688;2023-02-28T15:50:54;8.70;94.40
16417;DHT22;8317;52.186;5.688;2023-02-28T15:53:24;8.70;94.80
16417;DHT22;8317;52.186;5.688;2023-02-28T15:56:00;8.40;93.70
16417;DHT22;8317;52.186;5.688;2023-02-28T15:58:28;8.30;94.30
16417;DHT22;8317;52.186;5.688;2023-02-28T16:01:08;8.10;94.60
16417;DHT22;8317;52.186;5.688;2023-02-28T16:03:44;8.20;94.20
16417;DHT22;8317;52.186;5.688;2023-02-28T16:06:39;8.00;94.50
16417;DHT22;8317;52.186;5.688;2023-02-28T16:09:10;7.90;95.40
16417;DHT22;8317;52.186;5.688;2023-02-28T16:11:41;7.70;95.30
16417;DHT22;8317;52.186;5.688;2023-02-28T16:14:19;7.70;95.60
16417;DHT22;8317;52.186;5.688;2023-02-28T16:16:51;7.60;96.30
16417;DHT22;8317;52.186;5.688;2023-02-28T16:19:19;7.70;96.40
16417;DHT22;8317;52.186;5.688;2023-02-28T16:21:48;7.60;96.30
16417;DHT22;8317;52.186;5.688;2023-02-28T16:24:15;7.30;95.80
16417;DHT22;8317;52.186;5.688;2023-02-28T16:26:44;7.20;96.80
16417;DHT22;8317;52.186;5.688;2023-02-28T16:29:14;7.20;96.70
16417;DHT22;8317;52.186;5.688;2023-02-28T16:31:42;7.30;97.70
16417;DHT22;8317;52.186;5.688;2023-02-28T16:34:09;7.30;97.80
16417;DHT22;8317;52.186;5.688;2023-02-28T16:36:36;7.20;98.10
16417;DHT22;8317;52.186;5.688;2023-02-28T16:39:04;7.20;98.60
16417;DHT22;8317;52.186;5.688;2023-02-28T16:41:31;7.20;99.10
16417;DHT22;8317;52.186;5.688;2023-02-28T16:43:59;7.20;98.50
16417;DHT22;8317;52.186;5.688;2023-02-28T16:46:31;7.10;98.80
16417;DHT22;8317;52.186;5.688;2023-02-28T16:49:00;7.10;99.40
16417;DHT22;8317;52.186;5.688;2023-02-28T16:51:27;7.10;99.60